Time;durP1;ratioP1;P1;durP2;ratioP2;P2;SDS_P1;SDS_P2;PMS_P1;PMS_P2;Temp;Humidity;BMP_temperature;BMP_pressure;BME280_temperature;BME280_humidity;BME280_pressure;Samples;Min_cycle;Max_cycle;Signal;HPM_P1;HPM_P2
2022/06/25 00:02:21;;;;;;;6.22;5.57;;;24.30;87.40;;;;;;5042287;28;20051;-66
2022/06/25 00:07:30;;;;;;;7.50;6.70;;;24.20;87.70;;;;;;5052580;28;20056;-66
2022/06/25 00:09:56;;;;;;;7.18;6.47;;;24.30;87.80;;;;;;5052080;28;20393;-65
2022/06/25 00:12:34;;;;;;;8.27;6.80;;;24.20;88.10;;;;;;5052519;28;20044;-66
2022/06/25 00:15:04;;;;;;;9.88;7.40;;;24.20;88.70;;;;;;5051501;28;20099;-66
2022/06/25 00:17:30;;;;;;;8.82;7.00;;;24.20;89.00;;;;;;5042704;28;20029;-66
2022/06/25 00:19:56;;;;;;;7.90;7.10;;;24.10;89.60;;;;;;5042443;28;20087;-66
2022/06/25 00:22:22;;;;;;;8.32;7.53;;;24.10;90.00;;;;;;5043644;28;20025;-66
2022/06/25 00:24:48;;;;;;;8.82;7.20;;;24.00;90.20;;;;;;5040655;28;20495;-66
2022/06/25 00:27:13;;;;;;;9.23;7.13;;;24.10;90.30;;;;;;5052297;28;20041;-66
2022/06/25 00:29:39;;;;;;;9.32;7.05;;;24.00;90.40;;;;;;5049819;28;20021;-66
2022/06/25 00:32:09;;;;;;;9.57;7.93;;;24.00;90.50;;;;;;5052505;28;20036;-66
2022/06/25 00:34:35;;;;;;;8.70;7.80;;;24.00;90.80;;;;;;5051543;28;20104;-66
2022/06/25 00:37:01;;;;;;;15.02;10.30;;;23.90;91.00;;;;;;5035991;28;20108;-66
2022/06/25 00:39:26;;;;;;;13.20;11.15;;;23.90;91.20;;;;;;5037853;28;20112;-66
2022/06/25 00:41:52;;;;;;;13.35;12.05;;;23.90;91.30;;;;;;5052256;28;20543;-66
2022/06/25 00:44:17;;;;;;;17.10;15.23;;;23.90;91.50;;;;;;5051606;28;20115;-66
2022/06/25 00:46:47;;;;;;;17.60;15.68;;;23.80;91.60;;;;;;5039869;28;20057;-66
2022/06/25 00:49:13;;;;;;;18.42;15.85;;;23.80;91.70;;;;;;5047191;28;20033;-66
2022/06/25 00:51:40;;;;;;;18.92;16.90;;;23.70;91.90;;;;;;5041798;28;20021;-66
2022/06/25 00:54:09;;;;;;;18.35;16.45;;;23.60;92.00;;;;;;5034945;28;20055;-66
2022/06/25 00:56:42;;;;;;;17.88;16.00;;;23.60;92.10;;;;;;5034008;28;20025;-66
2022/06/25 00:59:09;;;;;;;21.05;18.15;;;23.60;92.30;;;;;;5038173;28;20428;-66
2022/06/25 01:01:35;;;;;;;20.17;17.50;;;23.60;92.60;;;;;;5050121;28;20032;-66
2022/06/25 01:04:02;;;;;;;18.63;16.17;;;23.50;92.80;;;;;;5050950;28;20037;-66
2022/06/25 01:06:28;;;;;;;19.58;17.50;;;23.50;92.90;;;;;;5034141;28;20049;-67
2022/06/25 01:08:55;;;;;;;20.58;17.58;;;23.50;93.10;;;;;;5032664;28;20072;-66
2022/06/25 01:11:21;;;;;;;19.80;16.75;;;23.50;93.20;;;;;;5035500;28;20049;-65
2022/06/25 01:13:47;;;;;;;22.92;18.35;;;23.50;93.30;;;;;;5041668;28;20053;-66
2022/06/25 01:16:12;;;;;;;19.85;17.85;;;23.40;93.60;;;;;;5051762;28;20420;-66
2022/06/25 01:18:38;;;;;;;18.95;16.95;;;23.40;93.80;;;;;;5050643;28;20025;-66
2022/06/25 01:21:04;;;;;;;19.73;16.73;;;23.30;94.00;;;;;;5050646;28;20043;-66
2022/06/25 01:23:30;;;;;;;23.13;20.63;;;23.30;94.20;;;;;;5043339;28;20030;-66
2022/06/25 01:25:56;;;;;;;23.00;18.98;;;23.30;94.40;;;;;;5036422;28;20048;-67
2022/06/25 01:28:21;;;;;;;21.98;19.58;;;23.30;94.50;;;;;;5045756;28;20100;-66
2022/06/25 01:30:47;;;;;;;24.50;19.38;;;23.20;94.70;;;;;;5050836;28;20037;-68
2022/06/25 01:33:13;;;;;;;22.95;18.88;;;23.20;94.80;;;;;;5050501;28;20368;-67
2022/06/25 01:35:38;;;;;;;24.25;18.42;;;23.20;94.90;;;;;;5048828;28;20059;-68
2022/06/25 01:38:04;;;;;;;18.45;16.42;;;23.10;95.00;;;;;;5048977;28;20027;-68
2022/06/25 01:40:34;;;;;;;18.73;16.60;;;23.10;95.20;;;;;;5050308;28;20025;-68
2022/06/25 01:43:01;;;;;;;16.73;14.93;;;23.10;95.30;;;;;;5050158;28;20030;-68
2022/06/25 01:45:28;;;;;;;17.85;15.60;;;23.10;95.50;;;;;;5049976;28;20112;-68
2022/06/25 01:47:54;;;;;;;16.83;15.02;;;23.00;95.60;;;;;;5051042;28;20029;-65
2022/06/25 01:50:20;;;;;;;16.42;13.65;;;23.00;95.60;;;;;;5049763;28;20024;-66
2022/06/25 01:52:46;;;;;;;15.52;12.55;;;23.00;95.70;;;;;;5031945;28;20112;-66
2022/06/25 01:55:12;;;;;;;17.33;13.35;;;23.00;95.70;;;;;;5036901;28;20480;-65
2022/06/25 01:57:38;;;;;;;15.82;13.30;;;22.90;95.80;;;;;;5034789;28;20068;-65
2022/06/25 02:00:07;;;;;;;17.13;13.57;;;22.90;95.80;;;;;;5048998;28;20071;-66
2022/06/25 02:02:33;;;;;;;15.25;13.25;;;23.00;96.00;;;;;;5049978;28;20392;-66
2022/06/25 02:04:58;;;;;;;16.63;14.40;;;22.90;96.00;;;;;;5043296;28;20025;-67
2022/06/25 02:07:24;;;;;;;16.92;14.90;;;22.90;96.20;;;;;;5050986;28;20048;-67
2022/06/25 02:09:49;;;;;;;16.48;14.02;;;22.90;96.30;;;;;;5039617;28;20025;-65
2022/06/25 02:12:15;;;;;;;15.68;13.93;;;22.80;96.30;;;;;;5031478;28;20465;-65
2022/06/25 02:14:41;;;;;;;14.98;13.38;;;22.90;96.40;;;;;;5041705;28;20040;-65
2022/06/25 02:17:06;;;;;;;15.70;14.00;;;22.90;96.40;;;;;;5048025;28;20112;-65
2022/06/25 02:19:32;;;;;;;14.82;13.27;;;22.80;96.50;;;;;;5053174;28;20377;-65
2022/06/25 02:21:58;;;;;;;15.02;12.68;;;22.80;96.50;;;;;;5055132;28;20385;-65
2022/06/25 02:24:23;;;;;;;15.48;13.20;;;22.80;96.60;;;;;;5053396;28;20028;-65
2022/06/25 02:26:49;;;;;;;16.20;13.38;;;22.80;96.70;;;;;;5054010;28;20041;-64
2022/06/25 02:29:14;;;;;;;13.63;12.20;;;22.70;96.60;;;;;;5053496;28;20384;-65
2022/06/25 02:31:40;;;;;;;13.88;12.40;;;22.70;96.70;;;;;;5054469;28;20021;-65
2022/06/25 02:34:05;;;;;;;15.80;14.13;;;22.70;96.70;;;;;;5043354;28;20112;-66
2022/06/25 02:36:31;;;;;;;14.75;13.15;;;22.70;96.80;;;;;;5038917;28;20115;-66
2022/06/25 02:38:56;;;;;;;15.20;13.63;;;22.70;96.90;;;;;;5053018;28;20017;-67
2022/06/25 02:41:22;;;;;;;16.02;13.55;;;22.70;97.00;;;;;;5053934;28;20090;-66
2022/06/25 02:43:47;;;;;;;14.43;12.90;;;22.60;97.10;;;;;;5047917;28;20419;-66
2022/06/25 02:46:13;;;;;;;16.10;13.82;;;22.60;97.10;;;;;;5044807;28;20037;-66
2022/06/25 02:48:39;;;;;;;16.55;13.95;;;22.60;97.20;;;;;;5053859;28;20384;-66
2022/06/25 02:51:04;;;;;;;14.75;13.20;;;22.60;97.20;;;;;;5054577;28;20072;-65
2022/06/25 02:53:30;;;;;;;15.15;13.05;;;22.60;97.30;;;;;;5052507;28;20028;-65
2022/06/25 02:58:55;;;;;;;13.95;12.55;;;22.60;97.50;;;;;;5052768;28;20029;-65
2022/06/25 03:01:25;;;;;;;15.65;14.10;;;22.50;97.50;;;;;;5054613;28;20036;-65
2022/06/25 03:03:52;;;;;;;16.15;14.50;;;22.50;97.70;;;;;;5053909;28;20108;-65
2022/06/25 03:06:18;;;;;;;16.00;14.27;;;22.50;97.80;;;;;;5054400;28;20037;-65
2022/06/25 03:08:44;;;;;;;14.43;13.02;;;22.50;97.70;;;;;;5053062;28;20060;-66
2022/06/25 03:11:10;;;;;;;15.10;13.45;;;22.50;97.80;;;;;;5053269;28;20025;-66
2022/06/25 03:13:36;;;;;;;15.10;13.50;;;22.50;97.80;;;;;;5052988;28;20052;-66
2022/06/25 03:16:03;;;;;;;17.50;13.50;;;22.60;97.90;;;;;;5052659;28;20025;-65
2022/06/25 03:18:29;;;;;;;15.77;14.07;;;22.50;98.00;;;;;;5052316;28;20021;-66
2022/06/25 03:20:54;;;;;;;15.43;13.77;;;22.50;98.10;;;;;;5053934;28;20032;-65
2022/06/25 03:23:20;;;;;;;14.63;13.13;;;22.50;98.10;;;;;;5052725;28;20384;-66
2022/06/25 03:25:46;;;;;;;15.18;13.57;;;22.50;98.10;;;;;;5051626;28;20179;-66
2022/06/25 03:28:12;;;;;;;14.35;12.85;;;22.50;98.20;;;;;;5051520;28;20425;-66
2022/06/25 03:30:38;;;;;;;15.63;12.90;;;22.50;98.30;;;;;;5053359;28;20115;-65
2022/06/25 03:33:03;;;;;;;16.90;13.45;;;22.50;98.40;;;;;;5045672;28;20401;-66
2022/06/25 03:35:29;;;;;;;17.98;14.43;;;22.60;98.40;;;;;;5053261;28;20112;-65
2022/06/25 03:37:55;;;;;;;15.70;13.90;;;22.60;98.50;;;;;;5052688;28;20096;-66
2022/06/25 03:40:20;;;;;;;15.95;14.35;;;22.60;98.60;;;;;;5052999;28;20094;-66
2022/06/25 03:42:46;;;;;;;15.00;13.50;;;22.60;98.70;;;;;;5052371;28;20048;-66
2022/06/25 03:45:12;;;;;;;15.25;13.60;;;22.60;98.70;;;;;;5053180;28;20037;-66
2022/06/25 03:47:38;;;;;;;19.48;13.45;;;22.60;98.80;;;;;;5052252;28;20116;-66
2022/06/25 03:50:03;;;;;;;13.95;12.55;;;22.60;98.60;;;;;;5053238;28;20017;-66
2022/06/25 03:52:29;;;;;;;15.50;13.88;;;22.60;98.60;;;;;;5052442;28;20518;-66
2022/06/25 03:54:55;;;;;;;16.20;14.07;;;22.70;98.70;;;;;;5051142;28;20040;-66
2022/06/25 03:57:20;;;;;;;15.27;13.68;;;22.70;98.80;;;;;;5053040;28;20032;-66
2022/06/25 03:59:46;;;;;;;15.25;13.65;;;22.80;98.80;;;;;;5052149;28;20029;-66
2022/06/25 04:02:11;;;;;;;15.68;14.07;;;22.80;98.80;;;;;;5048437;28;20103;-65
2022/06/25 04:04:37;;;;;;;15.82;14.32;;;22.80;98.80;;;;;;5052148;28;20068;-66
2022/06/25 04:07:03;;;;;;;15.32;13.73;;;22.80;98.80;;;;;;5052255;28;20481;-66
2022/06/25 04:09:29;;;;;;;15.52;13.98;;;22.80;98.80;;;;;;5050246;28;20072;-66
2022/06/25 04:11:56;;;;;;;16.25;14.55;;;22.90;98.90;;;;;;5034816;28;20044;-66
2022/06/25 04:14:22;;;;;;;15.35;13.25;;;23.00;98.80;;;;;;5048200;28;20117;-66
2022/06/25 04:16:47;;;;;;;14.43;13.02;;;23.00;98.60;;;;;;5052460;28;20082;-66
2022/06/25 04:19:13;;;;;;;15.57;14.00;;;23.10;98.60;;;;;;5048469;28;20116;-66
2022/06/25 04:21:38;;;;;;;14.98;12.93;;;23.20;98.50;;;;;;5040675;28;20036;-66
2022/06/25 04:24:04;;;;;;;15.23;13.63;;;23.20;98.40;;;;;;5043608;28;20021;-66
2022/06/25 04:26:30;;;;;;;15.15;13.63;;;23.30;98.30;;;;;;5037814;28;20041;-66
2022/06/25 04:29:04;;;;;;;15.48;13.88;;;23.30;98.50;;;;;;5043838;28;20025;-66
2022/06/25 04:31:30;;;;;;;;;;;23.40;98.50;;;;;;5046508;28;20064;-66
2022/06/25 04:33:57;;;;;;;15.15;13.55;;;23.50;98.10;;;;;;5040602;28;19916;-66
2022/06/25 04:36:22;;;;;;;15.10;13.50;;;23.50;98.10;;;;;;5032269;28;20479;-66
2022/06/25 04:38:49;;;;;;;14.90;13.52;;;23.60;98.00;;;;;;5041900;28;20048;-66
2022/06/25 04:41:14;;;;;;;14.55;13.10;;;23.60;98.10;;;;;;5051164;28;20499;-66
2022/06/25 04:43:40;;;;;;;13.82;12.20;;;23.60;98.00;;;;;;5051475;28;20025;-65
2022/06/25 04:46:06;;;;;;;19.67;13.48;;;23.70;98.00;;;;;;5045085;28;20029;-66
2022/06/25 04:48:31;;;;;;;13.70;12.40;;;23.70;97.90;;;;;;5051174;28;20025;-65
2022/06/25 04:50:57;;;;;;;13.55;12.18;;;23.80;97.90;;;;;;5033723;28;20303;-66
2022/06/25 04:53:22;;;;;;;14.60;12.20;;;23.80;97.70;;;;;;5035446;28;20175;-66
2022/06/25 04:55:48;;;;;;;15.32;12.65;;;23.90;97.40;;;;;;5032368;28;20091;-66
2022/06/25 04:58:13;;;;;;;14.32;12.88;;;23.90;97.40;;;;;;5037256;28;20102;-66
2022/06/25 05:00:40;;;;;;;14.23;12.85;;;24.00;97.50;;;;;;5050793;28;20029;-65
2022/06/25 05:03:06;;;;;;;14.68;13.18;;;24.00;97.40;;;;;;5050497;28;20021;-64
2022/06/25 05:05:31;;;;;;;14.48;12.85;;;24.10;97.20;;;;;;5048517;28;20041;-65
2022/06/25 05:07:57;;;;;;;14.55;13.15;;;24.20;97.00;;;;;;5034232;28;20037;-66
2022/06/25 05:10:22;;;;;;;14.77;13.38;;;24.20;97.20;;;;;;5049017;28;20116;-66
2022/06/25 05:15:33;;;;;;;15.18;12.27;;;24.40;96.70;;;;;;5032937;28;20029;-68
2022/06/25 05:17:59;;;;;;;14.45;12.95;;;24.50;96.50;;;;;;5043176;28;20037;-69
2022/06/25 05:20:25;;;;;;;13.90;12.60;;;24.60;96.60;;;;;;5050977;28;20384;-71
2022/06/25 05:22:50;;;;;;;16.35;12.80;;;24.70;96.30;;;;;;5050601;28;20045;-71
2022/06/25 05:25:16;;;;;;;13.95;12.55;;;24.80;96.10;;;;;;5051686;28;20392;-69
2022/06/25 05:27:42;;;;;;;15.10;11.85;;;24.90;96.20;;;;;;5045225;28;20033;-69
2022/06/25 05:30:08;;;;;;;14.70;12.23;;;24.90;96.00;;;;;;5035620;28;20036;-69
2022/06/25 05:32:34;;;;;;;16.63;13.15;;;25.00;95.90;;;;;;5049339;28;20029;-69
2022/06/25 05:34:59;;;;;;;13.20;11.65;;;25.10;95.60;;;;;;5050383;28;20021;-71
2022/06/25 05:37:25;;;;;;;13.45;12.10;;;25.10;95.70;;;;;;5045855;28;20032;-68
2022/06/25 05:39:51;;;;;;;13.25;11.82;;;25.20;95.40;;;;;;5042276;28;20108;-68
2022/06/25 05:42:17;;;;;;;13.95;12.55;;;25.20;95.30;;;;;;5035138;28;20056;-70
2022/06/25 05:44:43;;;;;;;14.48;13.07;;;25.30;94.90;;;;;;5047634;28;20427;-68
2022/06/25 05:47:09;;;;;;;13.05;11.68;;;25.30;94.80;;;;;;5048302;28;20040;-68
2022/06/25 05:49:35;;;;;;;14.15;12.80;;;25.30;94.70;;;;;;5048534;28;20651;-69
2022/06/25 05:52:00;;;;;;;15.23;11.90;;;25.30;94.60;;;;;;5054254;28;20321;-69
2022/06/25 05:54:26;;;;;;;13.82;12.43;;;25.30;94.50;;;;;;5053017;28;20481;-69
2022/06/25 05:56:52;;;;;;;14.27;12.68;;;25.30;94.50;;;;;;5054612;28;20032;-69
2022/06/25 05:59:18;;;;;;;14.40;12.57;;;25.40;94.40;;;;;;5053249;28;20032;-69
2022/06/25 06:01:43;;;;;;;13.77;12.48;;;25.40;94.30;;;;;;5053901;28;20029;-69
2022/06/25 06:04:09;;;;;;;13.88;12.40;;;25.50;94.20;;;;;;5052943;28;20420;-69
2022/06/25 06:06:34;;;;;;;14.20;12.70;;;25.50;94.30;;;;;;5053801;28;20040;-68
2022/06/25 06:09:00;;;;;;;12.30;11.10;;;25.60;94.40;;;;;;5045546;28;20132;-68
2022/06/25 06:11:26;;;;;;;14.05;12.63;;;25.80;94.20;;;;;;5053811;28;20029;-69
2022/06/25 06:13:51;;;;;;;12.07;10.50;;;25.90;94.10;;;;;;5046276;28;20063;-68
2022/06/25 06:16:17;;;;;;;12.43;11.15;;;26.00;93.90;;;;;;5053139;28;20037;-68
2022/06/25 06:18:42;;;;;;;12.60;11.38;;;26.10;93.80;;;;;;5049518;28;20474;-69
2022/06/25 06:21:08;;;;;;;12.90;11.60;;;26.20;93.60;;;;;;5051451;28;20091;-69
2022/06/25 06:23:33;;;;;;;12.43;11.13;;;26.20;93.40;;;;;;5053485;28;20025;-69
2022/06/25 06:25:59;;;;;;;12.57;11.38;;;26.30;93.20;;;;;;5050792;28;20052;-69
2022/06/25 06:28:25;;;;;;;12.93;11.52;;;26.30;93.20;;;;;;5050530;28;20120;-68
2022/06/25 06:30:50;;;;;;;12.32;11.13;;;26.30;93.10;;;;;;5050262;28;20025;-68
2022/06/25 06:33:17;;;;;;;13.05;11.32;;;26.40;93.30;;;;;;5052177;28;20027;-69
2022/06/25 06:35:43;;;;;;;12.48;11.18;;;26.40;93.00;;;;;;5052605;28;20052;-68
2022/06/25 06:38:09;;;;;;;12.60;11.38;;;26.50;92.90;;;;;;5052815;28;20532;-69
2022/06/25 06:40:34;;;;;;;12.60;11.23;;;26.60;93.00;;;;;;5053266;28;20025;-68
2022/06/25 06:43:00;;;;;;;11.82;10.57;;;26.70;92.60;;;;;;5052940;28;20052;-68
2022/06/25 06:45:26;;;;;;;12.65;11.23;;;26.70;92.30;;;;;;5054404;28;20017;-69
2022/06/25 06:47:52;;;;;;;12.00;10.80;;;26.70;92.30;;;;;;5052149;28;20040;-68
2022/06/25 06:50:18;;;;;;;11.48;10.20;;;26.70;92.10;;;;;;5051132;28;20021;-68
2022/06/25 06:52:44;;;;;;;12.93;11.63;;;26.70;91.70;;;;;;5042522;28;20061;-68
2022/06/25 06:55:09;;;;;;;13.25;11.13;;;26.60;91.70;;;;;;5053978;28;20031;-69
2022/06/25 06:57:35;;;;;;;12.35;11.15;;;26.50;91.70;;;;;;5042344;28;20029;-68
2022/06/25 07:00:06;;;;;;;11.80;10.60;;;26.50;91.70;;;;;;5052603;28;20025;-67
2022/06/25 07:02:32;;;;;;;11.70;10.50;;;26.50;91.80;;;;;;5047709;28;20113;-69
2022/06/25 07:04:57;;;;;;;12.20;10.82;;;26.40;91.60;;;;;;5051829;28;20028;-68
2022/06/25 07:07:23;;;;;;;12.70;11.38;;;26.50;91.80;;;;;;5050594;28;20384;-68
2022/06/25 07:09:49;;;;;;;13.35;11.23;;;26.50;91.70;;;;;;5065042;28;20451;-69
2022/06/25 07:12:15;;;;;;;12.65;10.68;;;26.50;92.00;;;;;;5046472;28;20034;-69
2022/06/25 07:14:40;;;;;;;11.30;10.20;;;26.50;91.70;;;;;;5048554;28;20028;-68
2022/06/25 07:17:06;;;;;;;12.35;11.15;;;26.50;91.60;;;;;;5034843;28;20484;-68
2022/06/25 07:19:31;;;;;;;12.52;11.27;;;26.50;91.70;;;;;;5051136;28;20057;-68
2022/06/25 07:21:57;;;;;;;11.90;10.65;;;26.60;92.00;;;;;;5057642;28;20024;-67
2022/06/25 07:24:23;;;;;;;14.57;12.52;;;26.60;91.90;;;;;;5049226;28;20060;-68
2022/06/25 07:26:49;;;;;;;12.38;11.18;;;26.60;91.80;;;;;;5045803;28;20036;-67
2022/06/25 07:29:15;;;;;;;15.02;13.35;;;26.60;92.00;;;;;;5047170;28;20021;-64
2022/06/25 07:31:41;;;;;;;13.68;12.45;;;26.60;91.90;;;;;;5052814;28;20365;-64
2022/06/25 07:34:06;;;;;;;13.27;11.73;;;26.70;92.10;;;;;;5051960;28;20017;-65
2022/06/25 07:36:32;;;;;;;13.05;11.75;;;26.70;92.30;;;;;;5052725;28;20410;-65
2022/06/25 07:39:00;;;;;;;14.18;12.60;;;26.80;92.20;;;;;;5047051;28;20104;-65
2022/06/25 07:41:26;;;;;;;14.18;12.68;;;26.90;92.10;;;;;;5051897;28;20041;-64
2022/06/25 07:43:51;;;;;;;14.10;12.65;;;27.00;91.90;;;;;;5052216;28;20067;-64
2022/06/25 07:46:17;;;;;;;13.60;12.25;;;27.10;91.60;;;;;;5052046;28;20440;-64
2022/06/25 07:48:43;;;;;;;14.60;13.07;;;27.20;91.80;;;;;;5052556;28;20071;-65
2022/06/25 07:53:53;;;;;;;14.77;13.25;;;27.40;91.50;;;;;;5052442;28;20047;-65
2022/06/25 07:56:18;;;;;;;14.07;12.68;;;27.30;91.40;;;;;;5052993;28;20458;-64
2022/06/25 07:58:44;;;;;;;15.05;13.65;;;27.40;91.50;;;;;;5050880;28;20217;-63
2022/06/25 08:01:10;;;;;;;13.85;12.55;;;27.50;91.70;;;;;;5053275;28;20487;-64
2022/06/25 08:03:35;;;;;;;15.75;14.07;;;27.60;91.80;;;;;;5052066;28;20100;-64
2022/06/25 08:06:01;;;;;;;14.38;12.90;;;27.70;91.10;;;;;;5053027;28;20040;-64
2022/06/25 08:08:27;;;;;;;15.25;13.65;;;27.70;91.00;;;;;;5051369;28;20048;-64
2022/06/25 08:10:52;;;;;;;14.70;13.30;;;27.70;90.90;;;;;;5052377;28;20025;-65
2022/06/25 08:13:18;;;;;;;14.02;12.50;;;27.70;91.10;;;;;;5051707;28;20108;-64
2022/06/25 08:15:44;;;;;;;14.32;12.82;;;27.70;91.10;;;;;;5050321;28;20025;-64
2022/06/25 08:18:09;;;;;;;14.98;13.13;;;27.70;91.00;;;;;;5051729;28;20032;-64
2022/06/25 08:20:35;;;;;;;13.02;11.82;;;27.80;90.90;;;;;;5052790;28;20017;-64
2022/06/25 08:23:00;;;;;;;13.20;11.90;;;27.80;90.30;;;;;;5050447;28;20532;-64
2022/06/25 08:25:26;;;;;;;12.88;11.57;;;27.80;90.00;;;;;;5051241;28;20492;-64
2022/06/25 08:27:53;;;;;;;13.55;11.50;;;27.80;90.00;;;;;;5051364;28;20017;-63
2022/06/25 08:30:23;;;;;;;12.77;11.57;;;27.80;89.50;;;;;;5051527;28;20033;-65
2022/06/25 08:32:49;;;;;;;11.73;10.57;;;27.90;89.70;;;;;;5051207;28;20051;-64
2022/06/25 08:35:15;;;;;;;11.52;10.38;;;28.00;89.30;;;;;;5052567;28;20025;-64
2022/06/25 08:37:46;;;;;;;10.85;9.75;;;28.10;88.20;;;;;;5050969;28;20025;-64
2022/06/25 08:40:12;;;;;;;11.48;10.35;;;28.20;87.50;;;;;;5052718;28;20036;-64
2022/06/25 08:42:37;;;;;;;11.60;10.45;;;28.30;87.90;;;;;;5050788;28;20029;-64
2022/06/25 08:45:03;;;;;;;9.57;8.70;;;28.50;87.50;;;;;;5052345;28;20388;-64
2022/06/25 08:47:29;;;;;;;9.90;8.40;;;28.60;86.40;;;;;;5051544;28;20033;-64
2022/06/25 08:49:55;;;;;;;8.52;7.65;;;28.80;86.10;;;;;;5051421;28;20045;-64
2022/06/25 08:52:22;;;;;;;8.63;7.82;;;29.00;85.00;;;;;;5051916;28;20025;-64
2022/06/25 08:54:48;;;;;;;8.23;7.40;;;29.10;84.00;;;;;;5050950;28;20052;-64
2022/06/25 08:57:15;;;;;;;9.20;8.27;;;29.20;84.20;;;;;;5051809;28;20561;-64
2022/06/25 08:59:41;;;;;;;8.27;7.40;;;29.30;83.70;;;;;;5050898;28;20028;-64
2022/06/25 09:02:07;;;;;;;8.38;7.60;;;29.40;83.00;;;;;;5050865;28;20041;-64
2022/06/25 09:04:33;;;;;;;8.38;7.13;;;29.50;82.10;;;;;;5050769;28;20047;-64
2022/06/25 09:07:20;;;;;;;7.90;6.47;;;29.60;81.20;;;;;;5051340;28;20120;-64
2022/06/25 09:09:49;;;;;;;7.43;6.68;;;29.60;81.10;;;;;;5050727;28;20037;-64
2022/06/25 09:12:17;;;;;;;8.05;6.32;;;29.60;80.20;;;;;;5050702;28;20124;-64
2022/06/25 09:14:44;;;;;;;9.40;7.75;;;29.50;79.70;;;;;;5050500;28;20484;-64
2022/06/25 09:17:14;;;;;;;7.70;6.97;;;29.50;79.30;;;;;;5050586;28;20469;-64
2022/06/25 09:19:47;;;;;;;9.20;7.38;;;29.50;79.40;;;;;;5050446;28;20508;-64
2022/06/25 09:22:14;;;;;;;8.25;7.35;;;29.50;78.90;;;;;;5050433;28;20087;-64
2022/06/25 09:24:39;;;;;;;7.35;6.57;;;29.50;78.30;;;;;;5049638;28;20036;-64
2022/06/25 09:27:05;;;;;;;9.18;7.93;;;29.40;78.30;;;;;;5051377;28;20039;-64
2022/06/25 09:29:45;;;;;;;8.50;7.70;;;29.30;77.70;;;;;;5049661;28;20079;-64
2022/06/25 09:32:13;;;;;;;7.57;6.78;;;29.40;78.30;;;;;;5049471;28;20033;-65
2022/06/25 09:34:39;;;;;;;8.85;6.85;;;29.40;78.00;;;;;;5050019;28;20029;-64
2022/06/25 09:37:26;;;;;;;7.95;7.10;;;29.50;77.60;;;;;;5051406;28;20032;-64
2022/06/25 09:39:53;;;;;;;7.00;6.32;;;29.50;77.30;;;;;;5047602;28;20044;-64
2022/06/25 09:42:28;;;;;;;7.65;6.75;;;29.50;77.30;;;;;;5051263;28;20503;-64
2022/06/25 09:45:06;;;;;;;8.13;6.95;;;29.60;76.90;;;;;;5049934;28;20033;-64
2022/06/25 09:47:44;;;;;;;9.02;7.22;;;29.60;76.90;;;;;;5050391;28;20029;-64
2022/06/25 09:50:12;;;;;;;9.55;7.47;;;29.70;77.20;;;;;;5030421;28;20022;-64
2022/06/25 09:52:47;;;;;;;8.45;7.65;;;29.70;77.70;;;;;;5031256;28;20026;-64
2022/06/25 09:55:13;;;;;;;8.48;7.68;;;29.80;77.50;;;;;;5031510;28;20041;-64
2022/06/25 09:57:39;;;;;;;8.23;7.43;;;29.80;76.70;;;;;;5031137;28;20026;-65
2022/06/25 10:00:06;;;;;;;8.30;7.47;;;29.90;76.70;;;;;;5049885;28;20029;-64
2022/06/25 10:02:32;;;;;;;8.88;7.25;;;29.80;76.30;;;;;;5049320;28;20025;-65
2022/06/25 10:05:01;;;;;;;8.77;6.68;;;29.90;76.90;;;;;;5050194;28;20032;-65
2022/06/25 10:10:18;;;;;;;8.38;6.95;;;29.90;75.90;;;;;;5048852;28;20049;-65
2022/06/25 10:12:45;;;;;;;8.38;7.05;;;29.80;76.30;;;;;;5048700;28;20021;-65
2022/06/25 10:15:17;;;;;;;7.03;6.32;;;29.70;75.90;;;;;;5051272;28;20529;-65
2022/06/25 10:17:47;;;;;;;7.60;6.55;;;29.70;75.50;;;;;;5049798;28;20139;-64
2022/06/25 10:20:16;;;;;;;9.25;6.85;;;29.70;75.60;;;;;;5050117;28;20136;-64
2022/06/25 10:22:43;;;;;;;7.90;7.18;;;29.70;75.60;;;;;;5049065;28;20044;-64
2022/06/25 10:25:11;;;;;;;8.00;6.93;;;29.60;75.50;;;;;;5050734;28;20017;-64
2022/06/25 10:27:48;;;;;;;7.82;6.03;;;29.60;75.00;;;;;;5049532;28;20041;-64
2022/06/25 10:30:33;;;;;;;7.07;6.43;;;29.60;75.80;;;;;;5050620;28;20033;-65
2022/06/25 10:32:59;;;;;;;7.07;6.28;;;29.60;75.60;;;;;;5049471;28;20036;-64
2022/06/25 10:35:33;;;;;;;6.75;6.05;;;29.70;75.90;;;;;;5054686;28;20025;-65
2022/06/25 10:38:04;;;;;;;9.75;6.38;;;29.70;75.50;;;;;;5052634;28;20021;-64
2022/06/25 10:40:46;;;;;;;7.75;6.97;;;29.70;76.10;;;;;;5054801;28;20029;-64
2022/06/25 10:43:47;;;;;;;7.93;6.88;;;29.80;75.80;;;;;;5053340;28;20098;-63
2022/06/25 10:46:36;;;;;;;7.13;6.40;;;30.00;76.80;;;;;;5054805;28;20274;-63
2022/06/25 10:49:19;;;;;;;8.13;7.18;;;30.10;76.30;;;;;;5052555;28;20040;-63
2022/06/25 10:51:47;;;;;;;7.88;6.72;;;30.30;76.20;;;;;;5053967;28;20036;-64
2022/06/25 10:54:26;;;;;;;7.15;6.55;;;30.40;75.00;;;;;;5053114;28;20064;-64
2022/06/25 10:56:54;;;;;;;7.38;6.57;;;30.50;74.90;;;;;;5052588;28;20044;-64
2022/06/25 10:59:32;;;;;;;7.35;6.65;;;30.70;74.40;;;;;;5052968;28;20068;-64
2022/06/25 11:01:59;;;;;;;9.30;6.63;;;30.70;74.80;;;;;;5053327;28;20039;-64
2022/06/25 11:04:29;;;;;;;7.03;6.32;;;30.90;75.20;;;;;;5068084;28;20029;-64
2022/06/25 11:07:16;;;;;;;7.05;6.35;;;30.90;73.50;;;;;;5053458;28;20552;-64
2022/06/25 11:09:54;;;;;;;7.70;6.22;;;30.90;72.90;;;;;;5052768;28;20514;-65
2022/06/25 11:12:20;;;;;;;8.98;6.32;;;30.90;72.50;;;;;;5053860;28;20037;-65
2022/06/25 11:15:03;;;;;;;6.57;5.68;;;30.90;72.70;;;;;;5052454;28;20028;-65
2022/06/25 11:17:29;;;;;;;6.18;5.57;;;30.80;70.70;;;;;;5053732;28;20063;-64
2022/06/25 11:20:03;;;;;;;5.82;5.30;;;30.70;70.90;;;;;;5052927;28;20056;-65
2022/06/25 11:22:29;;;;;;;6.88;5.53;;;30.60;70.80;;;;;;5053685;28;20480;-65
2022/06/25 11:30:23;;;;;;;5.97;5.38;;;30.60;70.80;;;;;;5033691;28;20022;-65
2022/06/25 11:32:51;;;;;;;6.25;5.63;;;30.60;71.10;;;;;;5035024;28;20033;-65
2022/06/25 11:35:17;;;;;;;6.68;5.55;;;30.50;71.40;;;;;;5053358;28;20029;-64
2022/06/25 11:37:42;;;;;;;6.85;6.07;;;30.50;72.10;;;;;;5052190;28;20029;-64
2022/06/25 11:40:15;;;;;;;8.73;6.80;;;30.50;72.50;;;;;;5049685;28;20029;-65
2022/06/25 11:42:42;;;;;;;7.65;6.30;;;30.50;72.40;;;;;;5050634;28;20027;-64
2022/06/25 11:45:09;;;;;;;6.43;5.10;;;30.50;72.60;;;;;;5052506;28;20599;-64
2022/06/25 11:47:35;;;;;;;7.70;5.85;;;30.50;71.00;;;;;;5052021;28;20041;-64
2022/06/25 11:50:09;;;;;;;6.65;5.95;;;30.50;72.10;;;;;;5052688;28;20439;-63
2022/06/25 11:52:42;;;;;;;8.00;6.63;;;30.50;72.50;;;;;;5051852;28;20051;-64
2022/06/25 11:55:09;;;;;;;11.93;8.25;;;30.50;73.10;;;;;;5045197;28;20033;-65
2022/06/25 11:57:43;;;;;;;9.15;8.25;;;30.50;73.40;;;;;;5046883;28;20048;-66
2022/06/25 12:00:13;;;;;;;9.55;8.65;;;30.50;73.20;;;;;;5033388;28;20108;-65
2022/06/25 12:02:43;;;;;;;8.95;8.13;;;30.50;73.50;;;;;;5050231;28;20036;-65
2022/06/25 12:05:10;;;;;;;9.45;8.57;;;30.60;73.50;;;;;;5040215;28;20044;-65
2022/06/25 12:07:37;;;;;;;10.60;9.50;;;30.60;73.80;;;;;;5037365;28;20045;-66
2022/06/25 12:10:11;;;;;;;10.48;9.50;;;30.60;73.60;;;;;;5047528;28;20029;-65
2022/06/25 12:12:38;;;;;;;10.98;9.98;;;30.70;73.80;;;;;;5044017;28;20517;-65
2022/06/25 12:15:06;;;;;;;11.13;10.13;;;30.70;73.70;;;;;;5053448;28;20029;-65
2022/06/25 12:17:36;;;;;;;10.38;9.30;;;30.70;73.60;;;;;;5046685;28;20083;-70
2022/06/25 12:20:12;;;;;;;10.23;9.23;;;30.70;73.70;;;;;;5047323;28;20099;-69
2022/06/25 12:22:43;;;;;;;11.35;9.40;;;30.80;73.50;;;;;;5065659;28;20079;-68
2022/06/25 12:25:12;;;;;;;10.23;9.25;;;30.90;73.00;;;;;;5050616;28;20017;-69
2022/06/25 12:27:49;;;;;;;9.50;8.65;;;30.90;73.50;;;;;;5043429;28;20404;-69
2022/06/25 12:30:21;;;;;;;9.57;8.57;;;31.10;73.70;;;;;;5043117;28;20083;-70
2022/06/25 12:32:47;;;;;;;10.25;9.25;;;31.20;73.40;;;;;;5049887;28;20548;-68
2022/06/25 12:35:24;;;;;;;8.95;7.80;;;31.30;72.40;;;;;;5039399;28;20016;-68
2022/06/25 12:38:00;;;;;;;8.63;7.78;;;31.30;72.00;;;;;;5047754;28;22806;-69
2022/06/25 12:40:26;;;;;;;8.88;8.02;;;31.40;71.60;;;;;;5051564;28;20318;-69
2022/06/25 12:42:57;;;;;;;8.93;8.13;;;31.40;71.60;;;;;;5045621;28;20605;-69
2022/06/25 12:45:23;;;;;;;9.38;8.48;;;31.50;71.10;;;;;;5051643;28;20025;-68
2022/06/25 12:47:49;;;;;;;10.27;8.05;;;31.50;71.10;;;;;;5044384;28;20047;-69
2022/06/25 12:50:45;;;;;;;8.80;7.75;;;31.50;70.90;;;;;;5067545;28;20068;-68
2022/06/25 12:53:11;;;;;;;9.38;8.38;;;31.50;70.50;;;;;;5040203;28;20477;-68
2022/06/25 12:55:38;;;;;;;9.55;7.45;;;31.60;70.60;;;;;;5048286;28;20017;-69